Ebenezer — 9N220 — position and weather

sailwx.info

Track history (hours):
 
Tides and Currents Weather Stations Pressure Air Temp Water Temp Dewpoint Dewpoint Depression Visibility Wind Speed Wind Dir Waves Ship Positions

Ebenezer

Last reported at 2017-Nov-23 16:30 UTC. Time now 2017-Nov-25 00:17 UTC.
Position N 05°38' E 000°01'.

Length 20 m.

Type: Ship. MMSI: 752981000.

Date/timePositionNaut miles runAvg speedWind from/ knotsBaromVisibWave heightAir tempDewpointWater temp
2017-Nov-23 16:30N 05°38' E 000°01'3 5.7
2017-Nov-23 16:00N 05°36' E 000°03'1 1.5
2017-Nov-23 15:30N 05°36' E 000°03'3 5.4
2017-Nov-23 15:00N 05°38' E 000°02'1 0.4
2017-Nov-23 13:07N 05°38' E 000°01'0 2.5
2017-Nov-23 12:58N 05°38' E 000°01'3 6.0
2017-Nov-23 12:30N 05°35' E 000°00'3 5.1
2017-Nov-23 12:00N 05°38' E 000°01'1 0.4
2017-Nov-23 10:10N 05°38' E 000°01'  
2017-Nov-19 14:22N 05°38' E 000°01'2 5.5
2017-Nov-19 14:00N 05°36' E 000°01'2 3.2
2017-Nov-19 13:30N 05°38' E 000°01'1 0.1
2017-Nov-19 08:51N 05°38' E 000°01'0 1.3
2017-Nov-19 08:29N 05°38' E 000°01'2 5.1
2017-Nov-19 08:00N 05°36' E 000°01'3 5.3
2017-Nov-19 07:30N 05°38' E 000°01'0 0.0
2017-Nov-18 14:59N 05°38' E 000°01'0 0.0
2017-Nov-18 14:29N 05°38' E 000°01'0 0.4
2017-Nov-18 14:00N 05°38' E 000°01'2 4.4
2017-Nov-18 13:30N 05°36' E 000°02'1 1.3
2017-Nov-18 12:59N 05°36' E 000°03'0 0.7
2017-Nov-18 12:30N 05°36' E 000°02'3 4.3
2017-Nov-18 11:47N 05°38' E 000°01'1 3.2
2017-Nov-18 11:28N 05°37' E 000°01'2 4.5
2017-Nov-18 10:58N 05°35' E 000°00'0 0.0
2017-Nov-18 10:28N 05°35' E 000°00'0 0.1
2017-Nov-18 10:00N 05°35' E 000°00'0 0.0
2017-Nov-18 09:24N 05°35' E 000°00'0 0.0
2017-Nov-18 09:00N 05°35' E 000°00'3 5.7
2017-Nov-18 08:30N 05°38' E 000°01'1 0.0
2017-Nov-17 18:30N 05°38' E 000°01'1 1.7
2017-Nov-17 18:00N 05°38' E 000°01'2 4.8
2017-Nov-17 17:30N 05°35' E 000°02'1 2.6
2017-Nov-17 17:00N 05°37' E 000°02'2 3.5
2017-Nov-17 16:29N 05°38' E 000°01'0 0.0
2017-Nov-17 16:00N 05°38' E 000°01'3 6.8
2017-Nov-17 15:30N 05°35' E 000°02'1 2.9
2017-Nov-17 15:00N 05°36' E 000°03'2 3.2
2017-Nov-17 14:31N 05°37' E 000°01'2 3.7
2017-Nov-17 13:59N 05°38' E 000°01'0 0.0
2017-Nov-17 13:29N 05°38' E 000°01'0 0.3
2017-Nov-17 12:58N 05°38' E 000°01'2 3.4
2017-Nov-17 12:30N 05°37' E 000°01'2 3.3
2017-Nov-17 12:00N 05°35' E 000°00'1 1.4
2017-Nov-17 11:28N 05°34' E 000°00'0 0.0
2017-Nov-17 10:58N 05°34' E 000°00'0 0.0
2017-Nov-17 10:28N 05°34' E 000°00'0 0.0
2017-Nov-17 09:58N 05°34' E 000°00'1 1.9
2017-Nov-17 09:30N 05°35' E 000°01'3 0.2
2017-Nov-16 13:09N 05°38' E 000°01'0 2.3
2017-Nov-16 13:00N 05°38' E 000°01'3 6.7
2017-Nov-16 12:30N 05°35' E 000°02'3 6.3
2017-Nov-16 12:00N 05°38' E 000°01'2 4.5
2017-Nov-16 11:30N 05°36' E 000°01'1 2.8
2017-Nov-16 11:00N 05°35' E 000°02'0 0.1
2017-Nov-16 10:30N 05°35' E 000°02'3 6.8
2017-Nov-16 10:00N 05°38' E 000°01'3 6.6
2017-Nov-16 09:30N 05°35' E 000°01'1 2.3
2017-Nov-16 09:00N 05°36' E 000°01'  
Track history (hours):
 
Tides and Currents Weather Stations Pressure Air Temp Water Temp Dewpoint Dewpoint Depression Visibility Wind Speed Wind Dir Waves Ship Positions

Ebenezer

Last reported at 2017-Nov-23 16:30 UTC. Time now 2017-Nov-25 00:17 UTC.
Position N 05°38' E 000°01'.

Length 20 m.

Type: Ship. MMSI: 752981000.

Date/timePositionNaut miles runAvg speedWind from/ knotsBaromVisibWave heightAir tempDewpointWater temp
2017-Nov-23 16:30N 05°38' E 000°01'3 5.7
2017-Nov-23 16:00N 05°36' E 000°03'1 1.5
2017-Nov-23 15:30N 05°36' E 000°03'3 5.4
2017-Nov-23 15:00N 05°38' E 000°02'1 0.4
2017-Nov-23 13:07N 05°38' E 000°01'0 2.5
2017-Nov-23 12:58N 05°38' E 000°01'3 6.0
2017-Nov-23 12:30N 05°35' E 000°00'3 5.1
2017-Nov-23 12:00N 05°38' E 000°01'1 0.4
2017-Nov-23 10:10N 05°38' E 000°01'  
2017-Nov-19 14:22N 05°38' E 000°01'2 5.5
2017-Nov-19 14:00N 05°36' E 000°01'2 3.2
2017-Nov-19 13:30N 05°38' E 000°01'1 0.1
2017-Nov-19 08:51N 05°38' E 000°01'0 1.3
2017-Nov-19 08:29N 05°38' E 000°01'2 5.1
2017-Nov-19 08:00N 05°36' E 000°01'3 5.3
2017-Nov-19 07:30N 05°38' E 000°01'0 0.0
2017-Nov-18 14:59N 05°38' E 000°01'0 0.0
2017-Nov-18 14:29N 05°38' E 000°01'0 0.4
2017-Nov-18 14:00N 05°38' E 000°01'2 4.4
2017-Nov-18 13:30N 05°36' E 000°02'1 1.3
2017-Nov-18 12:59N 05°36' E 000°03'0 0.7
2017-Nov-18 12:30N 05°36' E 000°02'3 4.3
2017-Nov-18 11:47N 05°38' E 000°01'1 3.2
2017-Nov-18 11:28N 05°37' E 000°01'2 4.5
2017-Nov-18 10:58N 05°35' E 000°00'0 0.0
2017-Nov-18 10:28N 05°35' E 000°00'0 0.1
2017-Nov-18 10:00N 05°35' E 000°00'0 0.0
2017-Nov-18 09:24N 05°35' E 000°00'0 0.0
2017-Nov-18 09:00N 05°35' E 000°00'3 5.7
2017-Nov-18 08:30N 05°38' E 000°01'1 0.0
2017-Nov-17 18:30N 05°38' E 000°01'1 1.7
2017-Nov-17 18:00N 05°38' E 000°01'2 4.8
2017-Nov-17 17:30N 05°35' E 000°02'1 2.6
2017-Nov-17 17:00N 05°37' E 000°02'2 3.5
2017-Nov-17 16:29N 05°38' E 000°01'0 0.0
2017-Nov-17 16:00N 05°38' E 000°01'3 6.8
2017-Nov-17 15:30N 05°35' E 000°02'1 2.9
2017-Nov-17 15:00N 05°36' E 000°03'2 3.2
2017-Nov-17 14:31N 05°37' E 000°01'2 3.7
2017-Nov-17 13:59N 05°38' E 000°01'0 0.0
2017-Nov-17 13:29N 05°38' E 000°01'0 0.3
2017-Nov-17 12:58N 05°38' E 000°01'2 3.4
2017-Nov-17 12:30N 05°37' E 000°01'2 3.3
2017-Nov-17 12:00N 05°35' E 000°00'1 1.4
2017-Nov-17 11:28N 05°34' E 000°00'0 0.0
2017-Nov-17 10:58N 05°34' E 000°00'0 0.0
2017-Nov-17 10:28N 05°34' E 000°00'0 0.0
2017-Nov-17 09:58N 05°34' E 000°00'1 1.9
2017-Nov-17 09:30N 05°35' E 000°01'3 0.2
2017-Nov-16 13:09N 05°38' E 000°01'0 2.3
2017-Nov-16 13:00N 05°38' E 000°01'3 6.7
2017-Nov-16 12:30N 05°35' E 000°02'3 6.3
2017-Nov-16 12:00N 05°38' E 000°01'2 4.5
2017-Nov-16 11:30N 05°36' E 000°01'1 2.8
2017-Nov-16 11:00N 05°35' E 000°02'0 0.1
2017-Nov-16 10:30N 05°35' E 000°02'3 6.8
2017-Nov-16 10:00N 05°38' E 000°01'3 6.6
2017-Nov-16 09:30N 05°35' E 000°01'1 2.3
2017-Nov-16 09:00N 05°36' E 000°01'  

Dump ship's entire track history